SIA106 WSSS-WMKK
Flight info
| Callsign | SIA106 |
|---|---|
| Flight time | 0h 37m |
| Altitude | 24000 |
| Route | MASBO3A MASBO A457 GUPTA GUPTA1H |
| Aircraft | A359/H-SDE2E3GHIJ3J4J5LM1ORWXY/LB1D1 |
Departure
| Time | 2026-05-07 20:44 |
|---|---|
| Airport | Singapore Changi Airport (WSSS) |
Arrival
| Time | 2026-05-07 21:22 |
|---|---|
| Airport | Kuala Lumpur International Airport (WMKK) |
| Time | Latitude | Longitude | Altitude | Speed | Heading |
|---|---|---|---|---|---|
| 2026-05-07 20:27 | 1.35048 | 103.98818 | 31 ft | 0 kts | 290° |
| 2026-05-07 20:36 | 1.35046 | 103.98824 | 30 ft | 2 kts | 289° |
| 2026-05-07 20:37 | 1.35041 | 103.98840 | 31 ft | 2 kts | 289° |
| 2026-05-07 20:37 | 1.35035 | 103.98855 | 30 ft | 2 kts | 287° |
| 2026-05-07 20:37 | 1.35031 | 103.98871 | 28 ft | 2 kts | 283° |
| 2026-05-07 20:37 | 1.35028 | 103.98887 | 28 ft | 2 kts | 275° |
| 2026-05-07 20:38 | 1.35029 | 103.98904 | 28 ft | 2 kts | 234° |
| 2026-05-07 20:38 | 1.35037 | 103.98911 | 28 ft | 1 kts | 207° |
| 2026-05-07 20:38 | 1.35038 | 103.98911 | 28 ft | 0 kts | 206° |
| 2026-05-07 20:39 | 1.35031 | 103.98908 | 31 ft | 3 kts | 204° |
| 2026-05-07 20:39 | 1.34994 | 103.98891 | 31 ft | 8 kts | 204° |
| 2026-05-07 20:39 | 1.34929 | 103.98899 | 31 ft | 11 kts | 141° |
| 2026-05-07 20:40 | 1.34891 | 103.98975 | 31 ft | 14 kts | 114° |
| 2026-05-07 20:40 | 1.34849 | 103.99072 | 32 ft | 17 kts | 111° |
| 2026-05-07 20:40 | 1.34885 | 103.99148 | 32 ft | 14 kts | 31° |
| 2026-05-07 20:40 | 1.34989 | 103.99193 | 32 ft | 18 kts | 22° |
| 2026-05-07 20:41 | 1.35118 | 103.99246 | 32 ft | 22 kts | 22° |
| 2026-05-07 20:41 | 1.35267 | 103.99313 | 33 ft | 25 kts | 23° |
| 2026-05-07 20:41 | 1.35382 | 103.99362 | 33 ft | 18 kts | 22° |
| 2026-05-07 20:41 | 1.35509 | 103.99415 | 33 ft | 22 kts | 22° |
| 2026-05-07 20:42 | 1.35628 | 103.99463 | 33 ft | 15 kts | 22° |
| 2026-05-07 20:42 | 1.35740 | 103.99509 | 32 ft | 20 kts | 22° |
| 2026-05-07 20:42 | 1.35855 | 103.99557 | 32 ft | 17 kts | 23° |
| 2026-05-07 20:42 | 1.35975 | 103.99607 | 32 ft | 20 kts | 22° |
| 2026-05-07 20:43 | 1.36097 | 103.99663 | 32 ft | 16 kts | 36° |
| 2026-05-07 20:43 | 1.36120 | 103.99742 | 32 ft | 12 kts | 107° |
| 2026-05-07 20:43 | 1.36060 | 103.99804 | 33 ft | 14 kts | 155° |
| 2026-05-07 20:43 | 1.35954 | 103.99794 | 34 ft | 17 kts | 202° |
| 2026-05-07 20:44 | 1.35778 | 103.99720 | 36 ft | 58 kts | 202° |
| 2026-05-07 20:44 | 1.35121 | 103.99443 | 38 ft | 144 kts | 202° |
| 2026-05-07 20:44 | 1.33996 | 103.98968 | 306 ft | 190 kts | 203° |
| 2026-05-07 20:44 | 1.32834 | 103.98505 | 1593 ft | 173 kts | 201° |
| 2026-05-07 20:45 | 1.31761 | 103.98071 | 2441 ft | 157 kts | 203° |
| 2026-05-07 20:45 | 1.30695 | 103.97604 | 2830 ft | 183 kts | 203° |
| 2026-05-07 20:45 | 1.29410 | 103.97045 | 3185 ft | 221 kts | 203° |
| 2026-05-07 20:45 | 1.27897 | 103.96396 | 3689 ft | 249 kts | 203° |
| 2026-05-07 20:46 | 1.26261 | 103.95705 | 4566 ft | 260 kts | 203° |
| 2026-05-07 20:46 | 1.24529 | 103.95118 | 5511 ft | 267 kts | 191° |
| 2026-05-07 20:46 | 1.22660 | 103.95189 | 6477 ft | 275 kts | 165° |
| 2026-05-07 20:46 | 1.20976 | 103.96112 | 7465 ft | 280 kts | 142° |
| 2026-05-07 20:47 | 1.19483 | 103.97390 | 8546 ft | 285 kts | 139° |
| 2026-05-07 20:47 | 1.18007 | 103.98733 | 9679 ft | 289 kts | 136° |
| 2026-05-07 20:47 | 1.16753 | 104.00330 | 10558 ft | 301 kts | 119° |
| 2026-05-07 20:47 | 1.16161 | 104.02372 | 11037 ft | 326 kts | 93° |
| 2026-05-07 20:48 | 1.16589 | 104.04648 | 11573 ft | 344 kts | 66° |
| 2026-05-07 20:48 | 1.17992 | 104.06604 | 12390 ft | 352 kts | 46° |
| 2026-05-07 20:48 | 1.19728 | 104.08361 | 13271 ft | 358 kts | 43° |
| 2026-05-07 20:48 | 1.21779 | 104.09792 | 14146 ft | 362 kts | 31° |
| 2026-05-07 20:49 | 1.24014 | 104.10994 | 14923 ft | 368 kts | 26° |
| 2026-05-07 20:49 | 1.26482 | 104.11747 | 15673 ft | 376 kts | 9° |
| 2026-05-07 20:49 | 1.29112 | 104.11654 | 16396 ft | 385 kts | 349° |
| 2026-05-07 20:49 | 1.31605 | 104.10621 | 17096 ft | 395 kts | 329° |
| 2026-05-07 20:50 | 1.33800 | 104.08932 | 17785 ft | 402 kts | 321° |
| 2026-05-07 20:50 | 1.35926 | 104.07096 | 18401 ft | 407 kts | 321° |
| 2026-05-07 20:50 | 1.38080 | 104.05229 | 18993 ft | 412 kts | 321° |
| 2026-05-07 20:50 | 1.40278 | 104.03372 | 19591 ft | 415 kts | 323° |
| 2026-05-07 20:51 | 1.42756 | 104.01899 | 20181 ft | 415 kts | 339° |
| 2026-05-07 20:51 | 1.45474 | 104.00913 | 20810 ft | 417 kts | 344° |
| 2026-05-07 20:51 | 1.48254 | 104.00020 | 21404 ft | 421 kts | 345° |
| 2026-05-07 20:51 | 1.51048 | 103.99130 | 21744 ft | 422 kts | 345° |
| 2026-05-07 20:52 | 1.53853 | 103.98232 | 21825 ft | 425 kts | 345° |
| 2026-05-07 20:52 | 1.56669 | 103.97326 | 21829 ft | 426 kts | 345° |
| 2026-05-07 20:52 | 1.59493 | 103.96415 | 21826 ft | 427 kts | 345° |
| 2026-05-07 20:52 | 1.61364 | 103.95810 | 21827 ft | 427 kts | 345° |
| 2026-05-07 20:53 | 1.65147 | 103.94586 | 21825 ft | 427 kts | 345° |
| 2026-05-07 20:53 | 1.67019 | 103.93981 | 21825 ft | 427 kts | 345° |
| 2026-05-07 20:53 | 1.69830 | 103.93000 | 21813 ft | 429 kts | 340° |
| 2026-05-07 20:53 | 1.72478 | 103.91602 | 21817 ft | 432 kts | 328° |
| 2026-05-07 20:54 | 1.74774 | 103.89661 | 21816 ft | 435 kts | 315° |
| 2026-05-07 20:54 | 1.76596 | 103.87239 | 21812 ft | 438 kts | 302° |
| 2026-05-07 20:54 | 1.77839 | 103.84460 | 21813 ft | 440 kts | 288° |
| 2026-05-07 20:54 | 1.78435 | 103.81464 | 21813 ft | 441 kts | 275° |
| 2026-05-07 20:55 | 1.78376 | 103.78407 | 21814 ft | 440 kts | 264° |
| 2026-05-07 20:55 | 1.78220 | 103.75355 | 21805 ft | 441 kts | 271° |
| 2026-05-07 20:55 | 1.78484 | 103.72300 | 21807 ft | 441 kts | 277° |
| 2026-05-07 20:55 | 1.78911 | 103.69269 | 21806 ft | 441 kts | 278° |
| 2026-05-07 20:56 | 1.79358 | 103.66238 | 21806 ft | 441 kts | 278° |
| 2026-05-07 20:56 | 1.79792 | 103.63205 | 21808 ft | 441 kts | 278° |
| 2026-05-07 20:56 | 1.80225 | 103.60172 | 21809 ft | 441 kts | 278° |
| 2026-05-07 20:56 | 1.80659 | 103.57143 | 21813 ft | 441 kts | 278° |
| 2026-05-07 20:57 | 1.81095 | 103.54107 | 21813 ft | 441 kts | 278° |
| 2026-05-07 20:57 | 1.81531 | 103.51076 | 21815 ft | 441 kts | 278° |
| 2026-05-07 20:57 | 1.81968 | 103.48044 | 21819 ft | 441 kts | 278° |
| 2026-05-07 20:57 | 1.82405 | 103.45011 | 21822 ft | 441 kts | 278° |
| 2026-05-07 20:58 | 1.82841 | 103.41981 | 21825 ft | 440 kts | 278° |
| 2026-05-07 20:58 | 1.83277 | 103.38952 | 21827 ft | 440 kts | 278° |
| 2026-05-07 20:58 | 1.83714 | 103.35920 | 21830 ft | 440 kts | 278° |
| 2026-05-07 20:58 | 1.84150 | 103.32890 | 21827 ft | 440 kts | 278° |
| 2026-05-07 20:59 | 1.84660 | 103.29872 | 21822 ft | 440 kts | 283° |
| 2026-05-07 20:59 | 1.85617 | 103.26977 | 21827 ft | 439 kts | 294° |
| 2026-05-07 20:59 | 1.86908 | 103.24216 | 21828 ft | 438 kts | 297° |
| 2026-05-07 20:59 | 1.88256 | 103.21488 | 21825 ft | 438 kts | 297° |
| 2026-05-07 21:00 | 1.89591 | 103.18793 | 21827 ft | 437 kts | 297° |
| 2026-05-07 21:00 | 1.90936 | 103.16067 | 21827 ft | 437 kts | 297° |
| 2026-05-07 21:00 | 1.92298 | 103.13300 | 21833 ft | 437 kts | 297° |
| 2026-05-07 21:00 | 1.93620 | 103.10610 | 21830 ft | 438 kts | 297° |
| 2026-05-07 21:01 | 1.94960 | 103.07879 | 21833 ft | 438 kts | 297° |
| 2026-05-07 21:01 | 1.96300 | 103.05147 | 21828 ft | 438 kts | 297° |
| 2026-05-07 21:01 | 1.97643 | 103.02410 | 21828 ft | 438 kts | 297° |
| 2026-05-07 21:01 | 1.98982 | 102.99680 | 21828 ft | 438 kts | 297° |
| 2026-05-07 21:02 | 2.00321 | 102.96948 | 21828 ft | 438 kts | 297° |
| 2026-05-07 21:02 | 2.01661 | 102.94214 | 21830 ft | 438 kts | 297° |
| 2026-05-07 21:02 | 2.03000 | 102.91482 | 21824 ft | 438 kts | 297° |
| 2026-05-07 21:02 | 2.04338 | 102.88752 | 21826 ft | 438 kts | 297° |
| 2026-05-07 21:03 | 2.05680 | 102.86019 | 21827 ft | 438 kts | 297° |
| 2026-05-07 21:03 | 2.07014 | 102.83285 | 21825 ft | 438 kts | 297° |
| 2026-05-07 21:03 | 2.08346 | 102.80552 | 21826 ft | 438 kts | 297° |
| 2026-05-07 21:03 | 2.09679 | 102.77816 | 21829 ft | 438 kts | 297° |
| 2026-05-07 21:04 | 2.11012 | 102.75084 | 21829 ft | 438 kts | 297° |
| 2026-05-07 21:04 | 2.12347 | 102.72348 | 21828 ft | 438 kts | 297° |
| 2026-05-07 21:04 | 2.13680 | 102.69615 | 21829 ft | 438 kts | 297° |
| 2026-05-07 21:04 | 2.15000 | 102.66910 | 21828 ft | 438 kts | 297° |
| 2026-05-07 21:05 | 2.16335 | 102.64173 | 21827 ft | 438 kts | 297° |
| 2026-05-07 21:05 | 2.17726 | 102.61468 | 21831 ft | 437 kts | 300° |
| 2026-05-07 21:05 | 2.19200 | 102.58800 | 21828 ft | 437 kts | 300° |
| 2026-05-07 21:05 | 2.20677 | 102.56133 | 21829 ft | 437 kts | 300° |
| 2026-05-07 21:06 | 2.22144 | 102.53467 | 21764 ft | 434 kts | 300° |
| 2026-05-07 21:06 | 2.23580 | 102.50843 | 21118 ft | 430 kts | 300° |
| 2026-05-07 21:06 | 2.25025 | 102.48199 | 20074 ft | 437 kts | 300° |
| 2026-05-07 21:06 | 2.26490 | 102.45512 | 18999 ft | 443 kts | 300° |
| 2026-05-07 21:07 | 2.27974 | 102.42790 | 17913 ft | 449 kts | 300° |
| 2026-05-07 21:07 | 2.29466 | 102.40048 | 16867 ft | 448 kts | 299° |
| 2026-05-07 21:07 | 2.30950 | 102.37320 | 16060 ft | 443 kts | 299° |
| 2026-05-07 21:07 | 2.32393 | 102.34667 | 15708 ft | 426 kts | 299° |
| 2026-05-07 21:08 | 2.33779 | 102.32118 | 15419 ft | 409 kts | 299° |
| 2026-05-07 21:08 | 2.35112 | 102.29666 | 15132 ft | 393 kts | 299° |
| 2026-05-07 21:08 | 2.36394 | 102.27309 | 14885 ft | 378 kts | 300° |
| 2026-05-07 21:08 | 2.37626 | 102.25044 | 14669 ft | 364 kts | 300° |
| 2026-05-07 21:09 | 2.38813 | 102.22862 | 14461 ft | 351 kts | 300° |
| 2026-05-07 21:09 | 2.39957 | 102.20758 | 14228 ft | 339 kts | 300° |
| 2026-05-07 21:09 | 2.41058 | 102.18735 | 13857 ft | 333 kts | 300° |
| 2026-05-07 21:09 | 2.42148 | 102.16732 | 13227 ft | 324 kts | 300° |
| 2026-05-07 21:10 | 2.43217 | 102.14765 | 12356 ft | 320 kts | 299° |
| 2026-05-07 21:10 | 2.44273 | 102.12826 | 11468 ft | 316 kts | 299° |
| 2026-05-07 21:10 | 2.45334 | 102.10875 | 10486 ft | 315 kts | 298° |
| 2026-05-07 21:10 | 2.46380 | 102.08953 | 9509 ft | 314 kts | 298° |
| 2026-05-07 21:11 | 2.47406 | 102.07066 | 8492 ft | 312 kts | 298° |
| 2026-05-07 21:11 | 2.48436 | 102.05170 | 7481 ft | 309 kts | 298° |
| 2026-05-07 21:11 | 2.50465 | 102.01440 | 5478 ft | 302 kts | 298° |
| 2026-05-07 21:12 | 2.51461 | 101.99608 | 4481 ft | 298 kts | 298° |
| 2026-05-07 21:12 | 2.52207 | 101.97739 | 3929 ft | 277 kts | 279° |
| 2026-05-07 21:12 | 2.52063 | 101.95950 | 3775 ft | 246 kts | 249° |
| 2026-05-07 21:12 | 2.51300 | 101.94529 | 3641 ft | 221 kts | 236° |
| 2026-05-07 21:13 | 2.50477 | 101.93307 | 3497 ft | 203 kts | 234° |
| 2026-05-07 21:13 | 2.49699 | 101.92176 | 3374 ft | 196 kts | 234° |
| 2026-05-07 21:13 | 2.48924 | 101.91049 | 3250 ft | 197 kts | 234° |
| 2026-05-07 21:13 | 2.48175 | 101.89899 | 3184 ft | 198 kts | 239° |
| 2026-05-07 21:14 | 2.47837 | 101.88569 | 3181 ft | 201 kts | 272° |
| 2026-05-07 21:14 | 2.48341 | 101.87289 | 3181 ft | 201 kts | 311° |
| 2026-05-07 21:14 | 2.49414 | 101.86399 | 3184 ft | 202 kts | 326° |
| 2026-05-07 21:14 | 2.50595 | 101.85631 | 3181 ft | 204 kts | 327° |
| 2026-05-07 21:15 | 2.51776 | 101.84870 | 3175 ft | 197 kts | 326° |
| 2026-05-07 21:15 | 2.52919 | 101.84179 | 3169 ft | 189 kts | 329° |
| 2026-05-07 21:15 | 2.53987 | 101.83501 | 3174 ft | 173 kts | 326° |
| 2026-05-07 21:15 | 2.54928 | 101.82863 | 3164 ft | 156 kts | 325° |
| 2026-05-07 21:16 | 2.55815 | 101.82261 | 3164 ft | 153 kts | 326° |
| 2026-05-07 21:16 | 2.56693 | 101.81671 | 3165 ft | 152 kts | 325° |
| 2026-05-07 21:16 | 2.57575 | 101.81081 | 3122 ft | 153 kts | 326° |
| 2026-05-07 21:16 | 2.58453 | 101.80498 | 2953 ft | 150 kts | 326° |
| 2026-05-07 21:17 | 2.59321 | 101.79913 | 2742 ft | 151 kts | 326° |
| 2026-05-07 21:17 | 2.60184 | 101.79330 | 2537 ft | 149 kts | 326° |
| 2026-05-07 21:17 | 2.61030 | 101.78760 | 2340 ft | 145 kts | 326° |
| 2026-05-07 21:17 | 2.61856 | 101.78203 | 2159 ft | 141 kts | 326° |
| 2026-05-07 21:18 | 2.62655 | 101.77664 | 1974 ft | 137 kts | 326° |
| 2026-05-07 21:18 | 2.63424 | 101.77146 | 1801 ft | 131 kts | 327° |
| 2026-05-07 21:18 | 2.64178 | 101.76638 | 1629 ft | 130 kts | 327° |
| 2026-05-07 21:18 | 2.64929 | 101.76131 | 1470 ft | 130 kts | 327° |
| 2026-05-07 21:19 | 2.65672 | 101.75631 | 1306 ft | 130 kts | 327° |
| 2026-05-07 21:19 | 2.66420 | 101.75127 | 1132 ft | 129 kts | 327° |
| 2026-05-07 21:19 | 2.67172 | 101.74620 | 973 ft | 128 kts | 327° |
| 2026-05-07 21:19 | 2.67899 | 101.74130 | 831 ft | 127 kts | 327° |
| 2026-05-07 21:20 | 2.68632 | 101.73636 | 689 ft | 127 kts | 326° |
| 2026-05-07 21:20 | 2.69363 | 101.73143 | 548 ft | 127 kts | 327° |
| 2026-05-07 21:20 | 2.70090 | 101.72653 | 380 ft | 125 kts | 326° |
| 2026-05-07 21:20 | 2.70812 | 101.72166 | 223 ft | 125 kts | 326° |
| 2026-05-07 21:21 | 2.71528 | 101.71677 | 88 ft | 123 kts | 326° |
| 2026-05-07 21:21 | 2.72178 | 101.71237 | 56 ft | 89 kts | 326° |
| 2026-05-07 21:21 | 2.72531 | 101.71001 | 57 ft | 53 kts | 326° |
| 2026-05-07 21:21 | 2.72836 | 101.70795 | 53 ft | 52 kts | 326° |
| 2026-05-07 21:22 | 2.73136 | 101.70595 | 57 ft | 51 kts | 326° |
| 2026-05-07 21:22 | 2.73361 | 101.70477 | 57 ft | 30 kts | 347° |
| 2026-05-07 21:22 | 2.73542 | 101.70456 | 64 ft | 25 kts | 356° |
| 2026-05-07 21:22 | 2.73637 | 101.70459 | 59 ft | 11 kts | 20° |
| 2026-05-07 21:23 | 2.73699 | 101.70521 | 55 ft | 15 kts | 57° |
| 2026-05-07 21:23 | 2.73765 | 101.70619 | 57 ft | 19 kts | 55° |
| 2026-05-07 21:23 | 2.73848 | 101.70741 | 55 ft | 23 kts | 56° |
| 2026-05-07 21:23 | 2.73946 | 101.70886 | 56 ft | 27 kts | 54° |
| 2026-05-07 21:24 | 2.74062 | 101.71048 | 59 ft | 29 kts | 57° |
| 2026-05-07 21:24 | 2.74167 | 101.71213 | 55 ft | 28 kts | 54° |
| 2026-05-07 21:24 | 2.74284 | 101.71383 | 57 ft | 30 kts | 56° |
| 2026-05-07 21:24 | 2.74336 | 101.71458 | 55 ft | 10 kts | 46° |
| 2026-05-07 21:25 | 2.74378 | 101.71459 | 56 ft | 8 kts | 341° |
| 2026-05-07 21:25 | 2.74444 | 101.71421 | 55 ft | 12 kts | 336° |
| 2026-05-07 21:25 | 2.74510 | 101.71456 | 55 ft | 11 kts | 47° |
| 2026-05-07 21:25 | 2.74517 | 101.71466 | 57 ft | 0 kts | 57° |